sensor_id;sensor_type;location;lat;lon;timestamp;P1;durP1;ratioP1;P2;durP2;ratioP2
3217;SDS011;1621;49.702;8.618;2024-02-21T00:01:23;15.70;;;8.07;;
3217;SDS011;1621;49.702;8.618;2024-02-21T00:03:49;16.70;;;8.80;;
3217;SDS011;1621;49.702;8.618;2024-02-21T00:06:15;20.33;;;8.97;;
3217;SDS011;1621;49.702;8.618;2024-02-21T00:08:42;17.73;;;7.87;;
3217;SDS011;1621;49.702;8.618;2024-02-21T00:11:09;10.40;;;6.70;;
3217;SDS011;1621;49.702;8.618;2024-02-21T00:13:36;19.77;;;7.80;;
3217;SDS011;1621;49.702;8.618;2024-02-21T00:16:02;26.53;;;8.20;;
3217;SDS011;1621;49.702;8.618;2024-02-21T00:18:28;13.30;;;6.93;;
3217;SDS011;1621;49.702;8.618;2024-02-21T00:20:55;16.27;;;7.90;;
3217;SDS011;1621;49.702;8.618;2024-02-21T00:23:21;13.20;;;7.10;;
3217;SDS011;1621;49.702;8.618;2024-02-21T00:25:48;16.70;;;8.03;;
3217;SDS011;1621;49.702;8.618;2024-02-21T00:28:15;15.70;;;6.77;;
3217;SDS011;1621;49.702;8.618;2024-02-21T00:30:42;12.47;;;7.00;;
3217;SDS011;1621;49.702;8.618;2024-02-21T00:33:08;16.37;;;7.83;;
3217;SDS011;1621;49.702;8.618;2024-02-21T00:35:34;18.00;;;8.70;;
3217;SDS011;1621;49.702;8.618;2024-02-21T00:38:00;17.70;;;8.73;;
3217;SDS011;1621;49.702;8.618;2024-02-21T00:40:28;15.97;;;8.23;;
3217;SDS011;1621;49.702;8.618;2024-02-21T00:42:54;17.33;;;7.37;;
3217;SDS011;1621;49.702;8.618;2024-02-21T00:45:22;14.83;;;8.60;;
3217;SDS011;1621;49.702;8.618;2024-02-21T00:47:48;14.33;;;8.03;;
3217;SDS011;1621;49.702;8.618;2024-02-21T00:50:15;21.27;;;8.90;;
3217;SDS011;1621;49.702;8.618;2024-02-21T00:52:41;22.63;;;8.93;;
3217;SDS011;1621;49.702;8.618;2024-02-21T00:55:08;19.90;;;8.13;;
3217;SDS011;1621;49.702;8.618;2024-02-21T00:57:34;14.13;;;7.70;;
3217;SDS011;1621;49.702;8.618;2024-02-21T01:00:00;19.20;;;8.90;;
3217;SDS011;1621;49.702;8.618;2024-02-21T01:02:28;13.60;;;7.90;;
3217;SDS011;1621;49.702;8.618;2024-02-21T01:04:56;18.13;;;7.60;;
3217;SDS011;1621;49.702;8.618;2024-02-21T01:07:22;19.10;;;6.90;;
3217;SDS011;1621;49.702;8.618;2024-02-21T01:09:49;14.20;;;8.00;;
3217;SDS011;1621;49.702;8.618;2024-02-21T01:12:16;15.70;;;8.20;;
3217;SDS011;1621;49.702;8.618;2024-02-21T01:14:42;16.63;;;7.40;;
3217;SDS011;1621;49.702;8.618;2024-02-21T01:17:08;14.27;;;7.20;;
3217;SDS011;1621;49.702;8.618;2024-02-21T01:19:36;18.23;;;7.73;;
3217;SDS011;1621;49.702;8.618;2024-02-21T01:22:02;16.77;;;7.00;;
3217;SDS011;1621;49.702;8.618;2024-02-21T01:24:28;16.23;;;7.40;;
3217;SDS011;1621;49.702;8.618;2024-02-21T01:26:55;18.77;;;8.60;;
3217;SDS011;1621;49.702;8.618;2024-02-21T01:29:21;16.20;;;7.30;;
3217;SDS011;1621;49.702;8.618;2024-02-21T01:31:47;20.60;;;7.30;;
3217;SDS011;1621;49.702;8.618;2024-02-21T01:34:13;12.50;;;6.80;;
3217;SDS011;1621;49.702;8.618;2024-02-21T01:36:41;19.20;;;7.67;;
3217;SDS011;1621;49.702;8.618;2024-02-21T01:39:07;15.27;;;7.07;;
3217;SDS011;1621;49.702;8.618;2024-02-21T01:41:33;17.73;;;7.63;;
3217;SDS011;1621;49.702;8.618;2024-02-21T01:44:00;15.03;;;6.83;;
3217;SDS011;1621;49.702;8.618;2024-02-21T01:46:25;12.17;;;6.90;;
3217;SDS011;1621;49.702;8.618;2024-02-21T01:48:53;13.03;;;7.10;;
3217;SDS011;1621;49.702;8.618;2024-02-21T01:51:19;15.30;;;7.17;;
3217;SDS011;1621;49.702;8.618;2024-02-21T01:53:47;12.00;;;6.00;;
3217;SDS011;1621;49.702;8.618;2024-02-21T01:56:13;12.57;;;6.87;;
3217;SDS011;1621;49.702;8.618;2024-02-21T01:58:40;15.83;;;7.37;;
3217;SDS011;1621;49.702;8.618;2024-02-21T02:01:08;12.43;;;6.13;;
3217;SDS011;1621;49.702;8.618;2024-02-21T02:03:35;15.13;;;5.90;;
3217;SDS011;1621;49.702;8.618;2024-02-21T02:06:01;14.60;;;6.63;;
3217;SDS011;1621;49.702;8.618;2024-02-21T02:08:28;13.87;;;6.57;;
3217;SDS011;1621;49.702;8.618;2024-02-21T02:10:55;14.97;;;7.77;;
3217;SDS011;1621;49.702;8.618;2024-02-21T02:13:22;11.60;;;6.20;;
3217;SDS011;1621;49.702;8.618;2024-02-21T02:15:49;10.40;;;6.30;;
3217;SDS011;1621;49.702;8.618;2024-02-21T02:18:16;13.70;;;6.20;;
3217;SDS011;1621;49.702;8.618;2024-02-21T02:20:43;13.23;;;7.70;;
3217;SDS011;1621;49.702;8.618;2024-02-21T02:23:09;12.00;;;6.63;;
3217;SDS011;1621;49.702;8.618;2024-02-21T02:25:37;17.63;;;6.50;;
3217;SDS011;1621;49.702;8.618;2024-02-21T02:28:04;14.67;;;7.50;;
3217;SDS011;1621;49.702;8.618;2024-02-21T02:30:31;14.87;;;5.80;;
3217;SDS011;1621;49.702;8.618;2024-02-21T02:32:58;15.17;;;6.80;;
3217;SDS011;1621;49.702;8.618;2024-02-21T02:35:24;15.60;;;6.50;;
3217;SDS011;1621;49.702;8.618;2024-02-21T02:37:50;10.37;;;5.93;;
3217;SDS011;1621;49.702;8.618;2024-02-21T02:40:16;14.10;;;5.93;;
3217;SDS011;1621;49.702;8.618;2024-02-21T02:42:44;12.40;;;6.50;;
3217;SDS011;1621;49.702;8.618;2024-02-21T02:45:11;11.40;;;6.10;;
3217;SDS011;1621;49.702;8.618;2024-02-21T02:47:38;10.93;;;6.57;;
3217;SDS011;1621;49.702;8.618;2024-02-21T02:50:06;14.17;;;6.50;;
3217;SDS011;1621;49.702;8.618;2024-02-21T02:52:32;12.30;;;5.77;;
3217;SDS011;1621;49.702;8.618;2024-02-21T02:54:59;10.30;;;5.70;;
3217;SDS011;1621;49.702;8.618;2024-02-21T02:57:26;10.07;;;5.13;;
3217;SDS011;1621;49.702;8.618;2024-02-21T02:59:54;11.07;;;6.27;;
3217;SDS011;1621;49.702;8.618;2024-02-21T03:02:20;11.07;;;5.90;;
3217;SDS011;1621;49.702;8.618;2024-02-21T03:04:47;13.30;;;7.17;;
3217;SDS011;1621;49.702;8.618;2024-02-21T03:07:13;13.73;;;6.73;;
3217;SDS011;1621;49.702;8.618;2024-02-21T03:09:40;15.40;;;6.27;;
3217;SDS011;1621;49.702;8.618;2024-02-21T03:12:07;15.00;;;6.43;;
3217;SDS011;1621;49.702;8.618;2024-02-21T03:14:34;12.93;;;6.17;;
3217;SDS011;1621;49.702;8.618;2024-02-21T03:17:02;17.57;;;7.37;;
3217;SDS011;1621;49.702;8.618;2024-02-21T03:19:29;13.30;;;6.13;;
3217;SDS011;1621;49.702;8.618;2024-02-21T03:21:56;13.43;;;6.40;;
3217;SDS011;1621;49.702;8.618;2024-02-21T03:24:22;16.20;;;5.93;;
3217;SDS011;1621;49.702;8.618;2024-02-21T03:26:48;10.10;;;5.73;;
3217;SDS011;1621;49.702;8.618;2024-02-21T03:29:16;13.83;;;5.93;;
3217;SDS011;1621;49.702;8.618;2024-02-21T03:31:42;13.03;;;6.40;;
3217;SDS011;1621;49.702;8.618;2024-02-21T03:34:11;12.70;;;6.20;;
3217;SDS011;1621;49.702;8.618;2024-02-21T03:36:37;11.40;;;5.90;;
3217;SDS011;1621;49.702;8.618;2024-02-21T03:39:03;12.90;;;5.40;;
3217;SDS011;1621;49.702;8.618;2024-02-21T03:41:30;13.87;;;6.77;;
3217;SDS011;1621;49.702;8.618;2024-02-21T03:43:56;10.97;;;5.87;;
3217;SDS011;1621;49.702;8.618;2024-02-21T03:46:23;14.40;;;5.93;;
3217;SDS011;1621;49.702;8.618;2024-02-21T03:48:49;13.00;;;6.20;;
3217;SDS011;1621;49.702;8.618;2024-02-21T03:51:17;13.57;;;5.70;;
3217;SDS011;1621;49.702;8.618;2024-02-21T03:53:43;11.80;;;7.03;;
3217;SDS011;1621;49.702;8.618;2024-02-21T03:56:09;15.23;;;5.67;;
3217;SDS011;1621;49.702;8.618;2024-02-21T03:58:36;11.00;;;5.60;;
3217;SDS011;1621;49.702;8.618;2024-02-21T04:01:02;14.20;;;5.80;;
3217;SDS011;1621;49.702;8.618;2024-02-21T04:03:29;10.17;;;5.70;;
3217;SDS011;1621;49.702;8.618;2024-02-21T04:05:56;12.07;;;5.63;;
3217;SDS011;1621;49.702;8.618;2024-02-21T04:08:24;13.60;;;6.33;;
3217;SDS011;1621;49.702;8.618;2024-02-21T04:13:59;11.27;;;6.17;;
3217;SDS011;1621;49.702;8.618;2024-02-21T04:16:25;13.20;;;6.40;;
3217;SDS011;1621;49.702;8.618;2024-02-21T04:18:51;14.43;;;6.10;;
3217;SDS011;1621;49.702;8.618;2024-02-21T04:21:17;15.10;;;6.47;;
3217;SDS011;1621;49.702;8.618;2024-02-21T04:23:45;14.60;;;6.60;;
3217;SDS011;1621;49.702;8.618;2024-02-21T04:26:11;10.87;;;6.30;;
3217;SDS011;1621;49.702;8.618;2024-02-21T04:28:38;13.13;;;5.40;;
3217;SDS011;1621;49.702;8.618;2024-02-21T04:31:04;16.97;;;6.33;;
3217;SDS011;1621;49.702;8.618;2024-02-21T04:33:30;15.20;;;6.00;;
3217;SDS011;1621;49.702;8.618;2024-02-21T04:35:56;13.70;;;5.97;;
3217;SDS011;1621;49.702;8.618;2024-02-21T04:38:23;11.90;;;5.50;;
3217;SDS011;1621;49.702;8.618;2024-02-21T04:40:51;15.23;;;6.43;;
3217;SDS011;1621;49.702;8.618;2024-02-21T04:43:17;15.70;;;6.90;;
3217;SDS011;1621;49.702;8.618;2024-02-21T04:45:43;12.47;;;5.87;;
3217;SDS011;1621;49.702;8.618;2024-02-21T04:48:10;14.40;;;6.40;;
3217;SDS011;1621;49.702;8.618;2024-02-21T04:50:36;13.13;;;5.70;;
3217;SDS011;1621;49.702;8.618;2024-02-21T04:53:02;18.23;;;6.00;;
3217;SDS011;1621;49.702;8.618;2024-02-21T04:55:29;12.53;;;6.03;;
3217;SDS011;1621;49.702;8.618;2024-02-21T04:57:56;9.83;;;6.03;;
3217;SDS011;1621;49.702;8.618;2024-02-21T05:00:22;9.83;;;5.77;;
3217;SDS011;1621;49.702;8.618;2024-02-21T05:02:49;12.37;;;6.07;;
3217;SDS011;1621;49.702;8.618;2024-02-21T05:05:15;12.50;;;6.20;;
3217;SDS011;1621;49.702;8.618;2024-02-21T05:07:42;12.37;;;6.30;;
3217;SDS011;1621;49.702;8.618;2024-02-21T05:10:08;12.67;;;6.00;;
3217;SDS011;1621;49.702;8.618;2024-02-21T05:12:34;11.40;;;5.27;;
3217;SDS011;1621;49.702;8.618;2024-02-21T05:15:02;14.00;;;6.43;;
3217;SDS011;1621;49.702;8.618;2024-02-21T05:17:29;10.10;;;5.60;;
3217;SDS011;1621;49.702;8.618;2024-02-21T05:19:55;17.40;;;5.57;;
3217;SDS011;1621;49.702;8.618;2024-02-21T05:22:21;11.17;;;5.87;;
3217;SDS011;1621;49.702;8.618;2024-02-21T05:24:47;15.73;;;6.43;;
3217;SDS011;1621;49.702;8.618;2024-02-21T05:27:14;14.13;;;6.20;;
3217;SDS011;1621;49.702;8.618;2024-02-21T05:29:40;9.97;;;5.33;;
3217;SDS011;1621;49.702;8.618;2024-02-21T05:32:07;11.87;;;6.17;;
3217;SDS011;1621;49.702;8.618;2024-02-21T05:34:34;15.97;;;6.60;;
3217;SDS011;1621;49.702;8.618;2024-02-21T05:37:00;12.47;;;6.43;;
3217;SDS011;1621;49.702;8.618;2024-02-21T05:39:26;11.50;;;6.27;;
3217;SDS011;1621;49.702;8.618;2024-02-21T05:41:54;15.90;;;5.83;;
3217;SDS011;1621;49.702;8.618;2024-02-21T05:44:20;17.50;;;6.40;;
3217;SDS011;1621;49.702;8.618;2024-02-21T05:46:47;14.10;;;6.40;;
3217;SDS011;1621;49.702;8.618;2024-02-21T05:49:15;17.03;;;6.40;;
3217;SDS011;1621;49.702;8.618;2024-02-21T05:51:41;11.43;;;5.57;;
3217;SDS011;1621;49.702;8.618;2024-02-21T05:54:07;13.07;;;5.80;;
3217;SDS011;1621;49.702;8.618;2024-02-21T05:56:33;15.30;;;6.47;;
3217;SDS011;1621;49.702;8.618;2024-02-21T05:59:00;13.50;;;6.40;;
3217;SDS011;1621;49.702;8.618;2024-02-21T06:01:26;10.30;;;5.20;;
3217;SDS011;1621;49.702;8.618;2024-02-21T06:03:51;13.13;;;5.40;;
3217;SDS011;1621;49.702;8.618;2024-02-21T06:06:19;13.20;;;5.23;;
3217;SDS011;1621;49.702;8.618;2024-02-21T06:08:46;14.80;;;5.53;;
3217;SDS011;1621;49.702;8.618;2024-02-21T06:11:13;13.33;;;6.60;;
3217;SDS011;1621;49.702;8.618;2024-02-21T06:13:40;15.20;;;6.20;;
3217;SDS011;1621;49.702;8.618;2024-02-21T06:16:06;11.37;;;4.97;;
3217;SDS011;1621;49.702;8.618;2024-02-21T06:18:35;10.30;;;5.13;;
3217;SDS011;1621;49.702;8.618;2024-02-21T06:21:01;12.90;;;6.77;;
3217;SDS011;1621;49.702;8.618;2024-02-21T06:23:28;12.60;;;5.67;;
3217;SDS011;1621;49.702;8.618;2024-02-21T06:25:55;10.50;;;5.97;;
3217;SDS011;1621;49.702;8.618;2024-02-21T06:28:21;13.03;;;6.63;;
3217;SDS011;1621;49.702;8.618;2024-02-21T06:30:47;14.73;;;5.63;;
3217;SDS011;1621;49.702;8.618;2024-02-21T06:33:13;13.93;;;6.77;;
3217;SDS011;1621;49.702;8.618;2024-02-21T06:35:40;14.03;;;5.90;;
3217;SDS011;1621;49.702;8.618;2024-02-21T06:38:07;14.73;;;6.40;;
3217;SDS011;1621;49.702;8.618;2024-02-21T06:40:35;13.10;;;6.10;;
3217;SDS011;1621;49.702;8.618;2024-02-21T06:43:05;10.20;;;6.03;;
3217;SDS011;1621;49.702;8.618;2024-02-21T06:45:31;16.67;;;5.87;;
3217;SDS011;1621;49.702;8.618;2024-02-21T06:47:57;12.00;;;6.20;;
3217;SDS011;1621;49.702;8.618;2024-02-21T06:50:23;10.47;;;5.80;;
3217;SDS011;1621;49.702;8.618;2024-02-21T06:52:50;12.00;;;5.80;;
3217;SDS011;1621;49.702;8.618;2024-02-21T06:55:16;17.77;;;6.77;;
3217;SDS011;1621;49.702;8.618;2024-02-21T06:57:43;9.63;;;5.43;;
3217;SDS011;1621;49.702;8.618;2024-02-21T07:00:10;15.03;;;5.67;;
3217;SDS011;1621;49.702;8.618;2024-02-21T07:02:37;10.77;;;6.27;;
3217;SDS011;1621;49.702;8.618;2024-02-21T07:05:03;12.03;;;6.90;;
3217;SDS011;1621;49.702;8.618;2024-02-21T07:07:30;19.53;;;7.63;;
3217;SDS011;1621;49.702;8.618;2024-02-21T07:09:56;14.30;;;6.60;;
3217;SDS011;1621;49.702;8.618;2024-02-21T07:12:22;13.50;;;6.77;;
3217;SDS011;1621;49.702;8.618;2024-02-21T07:14:50;11.07;;;5.97;;
3217;SDS011;1621;49.702;8.618;2024-02-21T07:17:16;14.40;;;6.67;;
3217;SDS011;1621;49.702;8.618;2024-02-21T07:19:42;25.63;;;6.67;;
3217;SDS011;1621;49.702;8.618;2024-02-21T07:22:08;10.50;;;5.83;;
3217;SDS011;1621;49.702;8.618;2024-02-21T07:24:35;10.73;;;6.23;;
3217;SDS011;1621;49.702;8.618;2024-02-21T07:27:02;9.07;;;6.23;;
3217;SDS011;1621;49.702;8.618;2024-02-21T07:29:29;12.67;;;6.30;;
3217;SDS011;1621;49.702;8.618;2024-02-21T07:31:57;11.93;;;6.47;;
3217;SDS011;1621;49.702;8.618;2024-02-21T07:34:23;11.60;;;6.13;;
3217;SDS011;1621;49.702;8.618;2024-02-21T07:36:49;13.37;;;5.80;;
3217;SDS011;1621;49.702;8.618;2024-02-21T07:39:15;13.03;;;6.47;;
3217;SDS011;1621;49.702;8.618;2024-02-21T07:41:42;16.97;;;6.70;;
3217;SDS011;1621;49.702;8.618;2024-02-21T07:44:10;14.53;;;6.27;;
3217;SDS011;1621;49.702;8.618;2024-02-21T07:46:36;10.97;;;6.53;;
3217;SDS011;1621;49.702;8.618;2024-02-21T07:49:03;11.37;;;6.07;;
3217;SDS011;1621;49.702;8.618;2024-02-21T07:51:30;12.43;;;6.27;;
3217;SDS011;1621;49.702;8.618;2024-02-21T07:53:56;16.20;;;7.00;;
3217;SDS011;1621;49.702;8.618;2024-02-21T07:56:22;14.93;;;7.00;;
3217;SDS011;1621;49.702;8.618;2024-02-21T07:58:48;14.77;;;6.73;;
3217;SDS011;1621;49.702;8.618;2024-02-21T08:01:18;14.10;;;8.63;;
3217;SDS011;1621;49.702;8.618;2024-02-21T08:03:44;16.80;;;8.30;;
3217;SDS011;1621;49.702;8.618;2024-02-21T08:06:12;14.87;;;7.83;;
3217;SDS011;1621;49.702;8.618;2024-02-21T08:08:39;10.17;;;6.97;;
3217;SDS011;1621;49.702;8.618;2024-02-21T08:11:05;14.33;;;8.00;;
3217;SDS011;1621;49.702;8.618;2024-02-21T08:13:31;13.40;;;6.80;;
3217;SDS011;1621;49.702;8.618;2024-02-21T08:15:57;12.47;;;6.23;;
3217;SDS011;1621;49.702;8.618;2024-02-21T08:18:24;11.43;;;6.60;;
3217;SDS011;1621;49.702;8.618;2024-02-21T08:20:50;15.80;;;6.73;;
3217;SDS011;1621;49.702;8.618;2024-02-21T08:23:17;12.50;;;6.40;;
3217;SDS011;1621;49.702;8.618;2024-02-21T08:25:44;13.30;;;6.27;;
3217;SDS011;1621;49.702;8.618;2024-02-21T08:28:10;11.00;;;6.43;;
3217;SDS011;1621;49.702;8.618;2024-02-21T08:30:38;16.27;;;6.40;;
3217;SDS011;1621;49.702;8.618;2024-02-21T08:33:04;15.23;;;7.57;;
3217;SDS011;1621;49.702;8.618;2024-02-21T08:35:30;13.00;;;6.13;;
3217;SDS011;1621;49.702;8.618;2024-02-21T08:37:56;11.53;;;6.30;;
3217;SDS011;1621;49.702;8.618;2024-02-21T08:40:24;12.33;;;6.10;;
3217;SDS011;1621;49.702;8.618;2024-02-21T08:42:50;10.30;;;6.20;;
3217;SDS011;1621;49.702;8.618;2024-02-21T08:45:17;11.60;;;5.53;;
3217;SDS011;1621;49.702;8.618;2024-02-21T08:47:43;12.83;;;7.00;;
3217;SDS011;1621;49.702;8.618;2024-02-21T08:50:10;9.87;;;6.10;;
3217;SDS011;1621;49.702;8.618;2024-02-21T08:52:36;11.53;;;6.40;;
3217;SDS011;1621;49.702;8.618;2024-02-21T08:55:02;10.43;;;6.30;;
3217;SDS011;1621;49.702;8.618;2024-02-21T08:57:30;15.73;;;6.03;;
3217;SDS011;1621;49.702;8.618;2024-02-21T09:00:01;9.60;;;5.80;;
3217;SDS011;1621;49.702;8.618;2024-02-21T09:02:31;12.50;;;6.33;;
3217;SDS011;1621;49.702;8.618;2024-02-21T09:04:58;12.90;;;6.60;;
3217;SDS011;1621;49.702;8.618;2024-02-21T09:07:24;10.83;;;6.20;;
3217;SDS011;1621;49.702;8.618;2024-02-21T09:09:50;11.47;;;6.37;;
3217;SDS011;1621;49.702;8.618;2024-02-21T09:12:16;10.97;;;6.53;;
3217;SDS011;1621;49.702;8.618;2024-02-21T09:14:44;15.67;;;6.43;;
3217;SDS011;1621;49.702;8.618;2024-02-21T09:17:12;13.93;;;6.27;;
3217;SDS011;1621;49.702;8.618;2024-02-21T09:19:39;12.83;;;6.40;;
3217;SDS011;1621;49.702;8.618;2024-02-21T09:22:06;12.30;;;6.10;;
3217;SDS011;1621;49.702;8.618;2024-02-21T09:24:32;10.70;;;5.10;;
3217;SDS011;1621;49.702;8.618;2024-02-21T09:26:58;8.70;;;5.70;;
3217;SDS011;1621;49.702;8.618;2024-02-21T09:29:25;13.83;;;6.27;;
3217;SDS011;1621;49.702;8.618;2024-02-21T09:31:52;10.37;;;5.63;;
3217;SDS011;1621;49.702;8.618;2024-02-21T09:34:18;10.27;;;5.70;;
3217;SDS011;1621;49.702;8.618;2024-02-21T09:36:45;12.07;;;5.60;;
3217;SDS011;1621;49.702;8.618;2024-02-21T09:39:11;11.37;;;5.80;;
3217;SDS011;1621;49.702;8.618;2024-02-21T09:41:40;12.83;;;5.90;;
3217;SDS011;1621;49.702;8.618;2024-02-21T09:44:11;19.50;;;6.20;;
3217;SDS011;1621;49.702;8.618;2024-02-21T09:46:41;9.60;;;4.97;;
3217;SDS011;1621;49.702;8.618;2024-02-21T09:49:13;12.67;;;5.77;;
3217;SDS011;1621;49.702;8.618;2024-02-21T09:51:43;18.00;;;7.03;;
3217;SDS011;1621;49.702;8.618;2024-02-21T09:54:09;10.73;;;5.90;;
3217;SDS011;1621;49.702;8.618;2024-02-21T09:56:36;11.47;;;5.87;;
3217;SDS011;1621;49.702;8.618;2024-02-21T09:59:02;11.13;;;5.57;;
3217;SDS011;1621;49.702;8.618;2024-02-21T10:01:29;12.30;;;6.77;;
3217;SDS011;1621;49.702;8.618;2024-02-21T10:03:56;16.83;;;5.70;;
3217;SDS011;1621;49.702;8.618;2024-02-21T10:06:24;15.20;;;5.80;;
3217;SDS011;1621;49.702;8.618;2024-02-21T10:08:53;14.13;;;5.73;;
3217;SDS011;1621;49.702;8.618;2024-02-21T10:11:23;15.70;;;5.60;;
3217;SDS011;1621;49.702;8.618;2024-02-21T10:13:49;16.03;;;6.27;;
3217;SDS011;1621;49.702;8.618;2024-02-21T10:16:16;14.33;;;6.50;;
3217;SDS011;1621;49.702;8.618;2024-02-21T10:18:42;12.43;;;6.63;;
3217;SDS011;1621;49.702;8.618;2024-02-21T10:21:08;16.80;;;6.00;;
3217;SDS011;1621;49.702;8.618;2024-02-21T10:23:43;12.10;;;6.37;;
3217;SDS011;1621;49.702;8.618;2024-02-21T10:26:10;11.90;;;5.50;;
3217;SDS011;1621;49.702;8.618;2024-02-21T10:28:36;10.33;;;5.40;;
3217;SDS011;1621;49.702;8.618;2024-02-21T10:31:03;13.87;;;6.13;;
3217;SDS011;1621;49.702;8.618;2024-02-21T10:33:29;16.37;;;6.27;;
3217;SDS011;1621;49.702;8.618;2024-02-21T10:36:05;17.70;;;6.07;;
3217;SDS011;1621;49.702;8.618;2024-02-21T10:38:32;10.67;;;5.90;;
3217;SDS011;1621;49.702;8.618;2024-02-21T10:41:00;11.13;;;5.23;;
3217;SDS011;1621;49.702;8.618;2024-02-21T10:43:28;10.77;;;5.17;;
3217;SDS011;1621;49.702;8.618;2024-02-21T10:45:57;14.00;;;5.90;;
3217;SDS011;1621;49.702;8.618;2024-02-21T10:48:27;12.10;;;5.37;;
3217;SDS011;1621;49.702;8.618;2024-02-21T10:50:56;12.23;;;6.10;;
3217;SDS011;1621;49.702;8.618;2024-02-21T10:53:24;10.50;;;5.20;;
3217;SDS011;1621;49.702;8.618;2024-02-21T10:55:56;15.63;;;5.50;;
3217;SDS011;1621;49.702;8.618;2024-02-21T10:58:25;11.07;;;5.80;;
3217;SDS011;1621;49.702;8.618;2024-02-21T11:00:54;13.97;;;5.67;;
3217;SDS011;1621;49.702;8.618;2024-02-21T11:03:21;12.10;;;5.70;;
3217;SDS011;1621;49.702;8.618;2024-02-21T11:05:47;17.30;;;5.80;;
3217;SDS011;1621;49.702;8.618;2024-02-21T11:08:14;9.33;;;4.83;;
3217;SDS011;1621;49.702;8.618;2024-02-21T11:10:45;16.53;;;6.53;;
3217;SDS011;1621;49.702;8.618;2024-02-21T11:13:11;12.30;;;5.33;;
3217;SDS011;1621;49.702;8.618;2024-02-21T11:15:40;12.13;;;5.53;;
3217;SDS011;1621;49.702;8.618;2024-02-21T11:18:06;10.83;;;4.77;;
3217;SDS011;1621;49.702;8.618;2024-02-21T11:20:33;12.07;;;5.00;;
3217;SDS011;1621;49.702;8.618;2024-02-21T11:23:00;8.97;;;4.30;;
3217;SDS011;1621;49.702;8.618;2024-02-21T11:25:27;9.03;;;5.03;;
3217;SDS011;1621;49.702;8.618;2024-02-21T11:27:58;10.23;;;4.50;;
3217;SDS011;1621;49.702;8.618;2024-02-21T11:30:26;13.50;;;5.33;;
3217;SDS011;1621;49.702;8.618;2024-02-21T11:32:59;11.67;;;3.90;;
3217;SDS011;1621;49.702;8.618;2024-02-21T11:35:25;8.97;;;4.53;;
3217;SDS011;1621;49.702;8.618;2024-02-21T11:37:56;12.50;;;5.07;;
3217;SDS011;1621;49.702;8.618;2024-02-21T11:40:33;11.70;;;4.27;;
3217;SDS011;1621;49.702;8.618;2024-02-21T11:42:59;12.50;;;4.30;;
3217;SDS011;1621;49.702;8.618;2024-02-21T11:45:26;11.30;;;4.13;;
3217;SDS011;1621;49.702;8.618;2024-02-21T11:47:52;9.73;;;3.73;;
3217;SDS011;1621;49.702;8.618;2024-02-21T11:50:20;12.33;;;3.40;;
3217;SDS011;1621;49.702;8.618;2024-02-21T11:52:46;9.87;;;3.90;;
3217;SDS011;1621;49.702;8.618;2024-02-21T11:55:14;7.53;;;3.57;;
3217;SDS011;1621;49.702;8.618;2024-02-21T11:57:40;8.10;;;3.63;;
3217;SDS011;1621;49.702;8.618;2024-02-21T12:00:14;9.33;;;4.30;;
3217;SDS011;1621;49.702;8.618;2024-02-21T12:02:41;13.30;;;4.87;;
3217;SDS011;1621;49.702;8.618;2024-02-21T12:05:07;8.63;;;3.73;;
3217;SDS011;1621;49.702;8.618;2024-02-21T12:07:37;9.70;;;3.70;;
3217;SDS011;1621;49.702;8.618;2024-02-21T12:10:06;10.33;;;5.07;;
3217;SDS011;1621;49.702;8.618;2024-02-21T12:12:34;6.03;;;3.40;;
3217;SDS011;1621;49.702;8.618;2024-02-21T12:15:02;8.80;;;3.50;;
3217;SDS011;1621;49.702;8.618;2024-02-21T12:17:29;9.37;;;3.90;;
3217;SDS011;1621;49.702;8.618;2024-02-21T12:19:56;10.30;;;3.57;;
3217;SDS011;1621;49.702;8.618;2024-02-21T12:22:22;7.60;;;3.43;;
3217;SDS011;1621;49.702;8.618;2024-02-21T12:24:50;6.77;;;3.33;;
3217;SDS011;1621;49.702;8.618;2024-02-21T12:27:16;7.73;;;2.90;;
3217;SDS011;1621;49.702;8.618;2024-02-21T12:29:42;10.57;;;4.13;;
3217;SDS011;1621;49.702;8.618;2024-02-21T12:32:08;6.93;;;3.40;;
3217;SDS011;1621;49.702;8.618;2024-02-21T12:34:35;6.73;;;3.23;;
3217;SDS011;1621;49.702;8.618;2024-02-21T12:37:01;6.10;;;2.83;;
3217;SDS011;1621;49.702;8.618;2024-02-21T12:39:28;9.90;;;3.50;;
3217;SDS011;1621;49.702;8.618;2024-02-21T12:41:56;14.70;;;3.57;;
3217;SDS011;1621;49.702;8.618;2024-02-21T12:44:22;7.00;;;2.90;;
3217;SDS011;1621;49.702;8.618;2024-02-21T12:46:49;9.73;;;3.90;;
3217;SDS011;1621;49.702;8.618;2024-02-21T12:49:18;8.10;;;3.80;;
3217;SDS011;1621;49.702;8.618;2024-02-21T12:51:45;9.03;;;3.40;;
3217;SDS011;1621;49.702;8.618;2024-02-21T12:54:11;10.03;;;3.27;;
3217;SDS011;1621;49.702;8.618;2024-02-21T12:56:38;7.10;;;3.50;;
3217;SDS011;1621;49.702;8.618;2024-02-21T12:59:06;9.43;;;3.50;;
3217;SDS011;1621;49.702;8.618;2024-02-21T13:01:34;9.33;;;3.40;;
3217;SDS011;1621;49.702;8.618;2024-02-21T13:04:00;8.63;;;3.40;;
3217;SDS011;1621;49.702;8.618;2024-02-21T13:06:27;9.47;;;3.30;;
3217;SDS011;1621;49.702;8.618;2024-02-21T13:08:53;12.50;;;4.10;;
3217;SDS011;1621;49.702;8.618;2024-02-21T13:11:19;17.13;;;4.43;;
3217;SDS011;1621;49.702;8.618;2024-02-21T13:13:45;10.27;;;4.23;;
3217;SDS011;1621;49.702;8.618;2024-02-21T13:16:13;6.77;;;3.40;;
3217;SDS011;1621;49.702;8.618;2024-02-21T13:18:39;9.17;;;3.50;;
3217;SDS011;1621;49.702;8.618;2024-02-21T13:21:07;10.63;;;3.50;;
3217;SDS011;1621;49.702;8.618;2024-02-21T13:23:34;9.33;;;3.17;;
3217;SDS011;1621;49.702;8.618;2024-02-21T13:26:00;7.13;;;3.53;;
3217;SDS011;1621;49.702;8.618;2024-02-21T13:28:26;8.57;;;4.00;;
3217;SDS011;1621;49.702;8.618;2024-02-21T13:30:52;11.00;;;3.80;;
3217;SDS011;1621;49.702;8.618;2024-02-21T13:33:20;12.13;;;3.80;;
3217;SDS011;1621;49.702;8.618;2024-02-21T13:35:46;7.63;;;3.60;;
3217;SDS011;1621;49.702;8.618;2024-02-21T13:38:12;8.87;;;3.70;;
3217;SDS011;1621;49.702;8.618;2024-02-21T13:40:39;11.07;;;4.77;;
3217;SDS011;1621;49.702;8.618;2024-02-21T13:43:07;7.27;;;3.77;;
3217;SDS011;1621;49.702;8.618;2024-02-21T13:45:33;12.10;;;5.20;;
3217;SDS011;1621;49.702;8.618;2024-02-21T13:47:59;6.97;;;3.70;;
3217;SDS011;1621;49.702;8.618;2024-02-21T13:50:29;8.77;;;3.60;;
3217;SDS011;1621;49.702;8.618;2024-02-21T13:52:55;8.40;;;3.40;;
3217;SDS011;1621;49.702;8.618;2024-02-21T13:55:22;8.23;;;3.30;;
3217;SDS011;1621;49.702;8.618;2024-02-21T13:57:51;9.10;;;3.83;;
3217;SDS011;1621;49.702;8.618;2024-02-21T14:00:17;8.20;;;3.53;;
3217;SDS011;1621;49.702;8.618;2024-02-21T14:02:45;12.87;;;3.43;;
3217;SDS011;1621;49.702;8.618;2024-02-21T14:05:11;9.93;;;3.60;;
3217;SDS011;1621;49.702;8.618;2024-02-21T14:07:39;9.07;;;4.70;;
3217;SDS011;1621;49.702;8.618;2024-02-21T14:10:06;7.20;;;4.17;;
3217;SDS011;1621;49.702;8.618;2024-02-21T14:12:34;9.33;;;4.43;;
3217;SDS011;1621;49.702;8.618;2024-02-21T14:15:00;11.63;;;3.97;;
3217;SDS011;1621;49.702;8.618;2024-02-21T14:17:27;15.80;;;4.43;;
3217;SDS011;1621;49.702;8.618;2024-02-21T14:19:53;9.70;;;3.73;;
3217;SDS011;1621;49.702;8.618;2024-02-21T14:22:19;11.20;;;3.50;;
3217;SDS011;1621;49.702;8.618;2024-02-21T14:24:47;7.70;;;3.97;;
3217;SDS011;1621;49.702;8.618;2024-02-21T14:27:13;8.20;;;4.13;;
3217;SDS011;1621;49.702;8.618;2024-02-21T14:29:39;11.50;;;3.57;;
3217;SDS011;1621;49.702;8.618;2024-02-21T14:32:06;8.93;;;3.83;;
3217;SDS011;1621;49.702;8.618;2024-02-21T14:34:32;11.50;;;4.87;;
3217;SDS011;1621;49.702;8.618;2024-02-21T14:36:58;10.47;;;4.50;;
3217;SDS011;1621;49.702;8.618;2024-02-21T14:39:24;6.87;;;3.33;;
3217;SDS011;1621;49.702;8.618;2024-02-21T14:41:53;11.30;;;4.03;;
3217;SDS011;1621;49.702;8.618;2024-02-21T14:44:19;10.20;;;4.40;;
3217;SDS011;1621;49.702;8.618;2024-02-21T14:46:46;7.60;;;3.93;;
3217;SDS011;1621;49.702;8.618;2024-02-21T14:49:12;8.17;;;3.30;;
3217;SDS011;1621;49.702;8.618;2024-02-21T14:51:38;8.13;;;3.23;;
3217;SDS011;1621;49.702;8.618;2024-02-21T14:54:04;8.13;;;3.83;;
3217;SDS011;1621;49.702;8.618;2024-02-21T14:56:31;7.63;;;3.67;;
3217;SDS011;1621;49.702;8.618;2024-02-21T14:58:58;10.87;;;3.47;;
3217;SDS011;1621;49.702;8.618;2024-02-21T15:01:25;5.77;;;3.27;;
3217;SDS011;1621;49.702;8.618;2024-02-21T15:03:51;10.07;;;3.07;;
3217;SDS011;1621;49.702;8.618;2024-02-21T15:06:17;6.37;;;3.00;;